sensor_id;sensor_type;location;lat;lon;timestamp;temperature;humidity
13332;DHT22;6735;51.456;12.626;2022-11-20T00:02:10;-3.60;84.60
13332;DHT22;6735;51.456;12.626;2022-11-20T00:04:35;-3.60;84.60
13332;DHT22;6735;51.456;12.626;2022-11-20T00:07:01;-3.60;84.50
13332;DHT22;6735;51.456;12.626;2022-11-20T00:09:26;-3.60;84.50
13332;DHT22;6735;51.456;12.626;2022-11-20T00:11:52;-3.70;84.60
13332;DHT22;6735;51.456;12.626;2022-11-20T00:14:17;-3.70;84.70
13332;DHT22;6735;51.456;12.626;2022-11-20T00:16:43;-3.70;84.90
13332;DHT22;6735;51.456;12.626;2022-11-20T00:19:09;-3.70;84.80
13332;DHT22;6735;51.456;12.626;2022-11-20T00:21:34;-3.70;84.90
13332;DHT22;6735;51.456;12.626;2022-11-20T00:24:00;-3.70;84.80
13332;DHT22;6735;51.456;12.626;2022-11-20T00:26:26;-3.70;84.70
13332;DHT22;6735;51.456;12.626;2022-11-20T00:28:59;-3.70;84.80
13332;DHT22;6735;51.456;12.626;2022-11-20T00:31:25;-3.70;84.70
13332;DHT22;6735;51.456;12.626;2022-11-20T00:33:52;-3.80;84.70
13332;DHT22;6735;51.456;12.626;2022-11-20T00:36:22;-3.80;84.80
13332;DHT22;6735;51.456;12.626;2022-11-20T00:38:55;-3.80;84.70
13332;DHT22;6735;51.456;12.626;2022-11-20T00:41:21;-3.80;84.80
13332;DHT22;6735;51.456;12.626;2022-11-20T00:43:47;-3.80;84.70
13332;DHT22;6735;51.456;12.626;2022-11-20T00:46:15;-3.80;84.90
13332;DHT22;6735;51.456;12.626;2022-11-20T00:48:41;-3.80;85.00
13332;DHT22;6735;51.456;12.626;2022-11-20T00:51:07;-3.80;85.20
13332;DHT22;6735;51.456;12.626;2022-11-20T00:53:32;-3.80;85.30
13332;DHT22;6735;51.456;12.626;2022-11-20T00:56:00;-3.80;85.20
13332;DHT22;6735;51.456;12.626;2022-11-20T00:58:30;-3.80;85.10
13332;DHT22;6735;51.456;12.626;2022-11-20T01:01:06;-3.80;85.00
13332;DHT22;6735;51.456;12.626;2022-11-20T01:03:33;-3.80;84.90
13332;DHT22;6735;51.456;12.626;2022-11-20T01:06:04;-3.80;84.70
13332;DHT22;6735;51.456;12.626;2022-11-20T01:08:32;-3.90;84.70
13332;DHT22;6735;51.456;12.626;2022-11-20T01:11:03;-3.90;84.60
13332;DHT22;6735;51.456;12.626;2022-11-20T01:13:30;-4.00;84.60
13332;DHT22;6735;51.456;12.626;2022-11-20T01:16:16;-4.00;84.50
13332;DHT22;6735;51.456;12.626;2022-11-20T01:18:45;-4.00;84.50
13332;DHT22;6735;51.456;12.626;2022-11-20T01:21:13;-4.00;84.50
13332;DHT22;6735;51.456;12.626;2022-11-20T01:23:41;-4.00;84.60
13332;DHT22;6735;51.456;12.626;2022-11-20T01:26:09;-4.00;84.60
13332;DHT22;6735;51.456;12.626;2022-11-20T01:28:35;-4.10;84.60
13332;DHT22;6735;51.456;12.626;2022-11-20T01:31:02;-4.10;84.60
13332;DHT22;6735;51.456;12.626;2022-11-20T01:33:35;-4.10;84.80
13332;DHT22;6735;51.456;12.626;2022-11-20T01:36:05;-4.10;84.80
13332;DHT22;6735;51.456;12.626;2022-11-20T01:38:31;-4.10;84.70
13332;DHT22;6735;51.456;12.626;2022-11-20T01:40:56;-4.10;84.70
13332;DHT22;6735;51.456;12.626;2022-11-20T01:43:22;-4.10;84.60
13332;DHT22;6735;51.456;12.626;2022-11-20T01:51:55;-4.10;84.70
13332;DHT22;6735;51.456;12.626;2022-11-20T01:54:25;-4.20;84.60
13332;DHT22;6735;51.456;12.626;2022-11-20T01:56:56;-4.20;84.60
13332;DHT22;6735;51.456;12.626;2022-11-20T01:59:23;-4.20;84.60
13332;DHT22;6735;51.456;12.626;2022-11-20T02:01:50;-4.20;84.60
13332;DHT22;6735;51.456;12.626;2022-11-20T02:04:16;-4.20;84.60
13332;DHT22;6735;51.456;12.626;2022-11-20T02:07:14;-4.20;84.60
13332;DHT22;6735;51.456;12.626;2022-11-20T02:09:40;-4.20;84.60
13332;DHT22;6735;51.456;12.626;2022-11-20T02:12:06;-4.20;84.60
13332;DHT22;6735;51.456;12.626;2022-11-20T02:14:51;-4.20;84.60
13332;DHT22;6735;51.456;12.626;2022-11-20T02:17:17;-4.30;84.60
13332;DHT22;6735;51.456;12.626;2022-11-20T02:19:42;-4.30;84.60
13332;DHT22;6735;51.456;12.626;2022-11-20T02:22:17;-4.30;84.60
13332;DHT22;6735;51.456;12.626;2022-11-20T02:24:45;-4.30;84.50
13332;DHT22;6735;51.456;12.626;2022-11-20T02:27:13;-4.30;84.60
13332;DHT22;6735;51.456;12.626;2022-11-20T02:32:21;-4.40;84.30
13332;DHT22;6735;51.456;12.626;2022-11-20T02:34:47;-4.40;84.20
13332;DHT22;6735;51.456;12.626;2022-11-20T02:37:12;-4.40;84.20
13332;DHT22;6735;51.456;12.626;2022-11-20T02:39:40;-4.40;84.20
13332;DHT22;6735;51.456;12.626;2022-11-20T02:42:05;-4.50;84.20
13332;DHT22;6735;51.456;12.626;2022-11-20T02:44:31;-4.50;84.20
13332;DHT22;6735;51.456;12.626;2022-11-20T02:46:59;-4.50;84.20
13332;DHT22;6735;51.456;12.626;2022-11-20T02:49:25;-4.50;84.30
13332;DHT22;6735;51.456;12.626;2022-11-20T02:51:51;-4.50;84.40
13332;DHT22;6735;51.456;12.626;2022-11-20T02:54:16;-4.50;84.40
13332;DHT22;6735;51.456;12.626;2022-11-20T02:56:42;-4.50;84.50
13332;DHT22;6735;51.456;12.626;2022-11-20T02:59:07;-4.50;84.50
13332;DHT22;6735;51.456;12.626;2022-11-20T03:01:33;-4.50;84.50
13332;DHT22;6735;51.456;12.626;2022-11-20T03:03:59;-4.50;84.50
13332;DHT22;6735;51.456;12.626;2022-11-20T03:06:24;-4.50;84.50
13332;DHT22;6735;51.456;12.626;2022-11-20T03:08:50;-4.50;84.50
13332;DHT22;6735;51.456;12.626;2022-11-20T03:11:15;-4.60;84.50
13332;DHT22;6735;51.456;12.626;2022-11-20T03:13:42;-4.50;84.50
13332;DHT22;6735;51.456;12.626;2022-11-20T03:16:12;-4.50;84.50
13332;DHT22;6735;51.456;12.626;2022-11-20T03:18:39;-4.50;84.50
13332;DHT22;6735;51.456;12.626;2022-11-20T03:21:05;-4.60;84.50
13332;DHT22;6735;51.456;12.626;2022-11-20T03:23:32;-4.60;84.60
13332;DHT22;6735;51.456;12.626;2022-11-20T03:26:15;-4.60;84.50
13332;DHT22;6735;51.456;12.626;2022-11-20T03:28:49;-4.60;84.50
13332;DHT22;6735;51.456;12.626;2022-11-20T03:31:17;-4.60;84.40
13332;DHT22;6735;51.456;12.626;2022-11-20T03:33:43;-4.70;84.40
13332;DHT22;6735;51.456;12.626;2022-11-20T03:36:11;-4.70;84.40
13332;DHT22;6735;51.456;12.626;2022-11-20T03:38:37;-4.70;84.20
13332;DHT22;6735;51.456;12.626;2022-11-20T03:41:06;-4.80;84.30
13332;DHT22;6735;51.456;12.626;2022-11-20T03:43:32;-4.70;84.40
13332;DHT22;6735;51.456;12.626;2022-11-20T03:45:58;-4.70;84.40
13332;DHT22;6735;51.456;12.626;2022-11-20T03:48:24;-4.70;84.40
13332;DHT22;6735;51.456;12.626;2022-11-20T03:50:50;-4.70;84.50
13332;DHT22;6735;51.456;12.626;2022-11-20T03:53:16;-4.70;84.40
13332;DHT22;6735;51.456;12.626;2022-11-20T03:55:42;-4.70;84.50
13332;DHT22;6735;51.456;12.626;2022-11-20T03:58:08;-4.80;84.40
13332;DHT22;6735;51.456;12.626;2022-11-20T04:00:33;-4.80;84.40
13332;DHT22;6735;51.456;12.626;2022-11-20T04:03:00;-4.80;84.50
13332;DHT22;6735;51.456;12.626;2022-11-20T04:05:26;-4.80;84.50
13332;DHT22;6735;51.456;12.626;2022-11-20T04:07:51;-4.80;84.50
13332;DHT22;6735;51.456;12.626;2022-11-20T04:10:17;-4.80;84.50
13332;DHT22;6735;51.456;12.626;2022-11-20T04:12:43;-4.80;84.60
13332;DHT22;6735;51.456;12.626;2022-11-20T04:15:09;-4.80;84.70
13332;DHT22;6735;51.456;12.626;2022-11-20T04:17:34;-4.80;84.60
13332;DHT22;6735;51.456;12.626;2022-11-20T04:20:00;-4.80;84.60
13332;DHT22;6735;51.456;12.626;2022-11-20T04:22:26;-4.80;84.70
13332;DHT22;6735;51.456;12.626;2022-11-20T04:24:52;-4.90;84.70
13332;DHT22;6735;51.456;12.626;2022-11-20T04:27:17;-4.80;84.70
13332;DHT22;6735;51.456;12.626;2022-11-20T04:29:43;-4.80;84.70
13332;DHT22;6735;51.456;12.626;2022-11-20T04:32:08;-4.90;84.60
13332;DHT22;6735;51.456;12.626;2022-11-20T04:34:34;-4.90;84.50
13332;DHT22;6735;51.456;12.626;2022-11-20T04:37:00;-4.90;84.60
13332;DHT22;6735;51.456;12.626;2022-11-20T04:39:26;-4.90;84.50
13332;DHT22;6735;51.456;12.626;2022-11-20T04:41:51;-4.90;84.50
13332;DHT22;6735;51.456;12.626;2022-11-20T04:44:37;-4.90;84.50
13332;DHT22;6735;51.456;12.626;2022-11-20T04:47:02;-4.90;84.50
13332;DHT22;6735;51.456;12.626;2022-11-20T04:49:28;-4.90;84.50
13332;DHT22;6735;51.456;12.626;2022-11-20T04:51:53;-4.90;84.50
13332;DHT22;6735;51.456;12.626;2022-11-20T04:54:19;-4.90;84.60
13332;DHT22;6735;51.456;12.626;2022-11-20T04:56:47;-4.90;84.60
13332;DHT22;6735;51.456;12.626;2022-11-20T04:59:13;-4.90;84.50
13332;DHT22;6735;51.456;12.626;2022-11-20T05:01:38;-4.90;84.50
13332;DHT22;6735;51.456;12.626;2022-11-20T05:04:04;-5.00;84.40
13332;DHT22;6735;51.456;12.626;2022-11-20T05:06:30;-5.00;84.40
13332;DHT22;6735;51.456;12.626;2022-11-20T05:08:56;-5.00;84.40
13332;DHT22;6735;51.456;12.626;2022-11-20T05:11:22;-4.90;84.50
13332;DHT22;6735;51.456;12.626;2022-11-20T05:13:48;-5.00;84.30
13332;DHT22;6735;51.456;12.626;2022-11-20T05:16:16;-5.00;84.20
13332;DHT22;6735;51.456;12.626;2022-11-20T05:18:42;-5.00;84.20
13332;DHT22;6735;51.456;12.626;2022-11-20T05:21:09;-5.10;84.20
13332;DHT22;6735;51.456;12.626;2022-11-20T05:23:35;-5.10;84.20
13332;DHT22;6735;51.456;12.626;2022-11-20T05:26:01;-5.10;84.30
13332;DHT22;6735;51.456;12.626;2022-11-20T05:28:28;-5.00;84.50
13332;DHT22;6735;51.456;12.626;2022-11-20T05:30:54;-5.00;84.50
13332;DHT22;6735;51.456;12.626;2022-11-20T05:33:20;-5.00;84.70
13332;DHT22;6735;51.456;12.626;2022-11-20T05:35:46;-5.00;84.80
13332;DHT22;6735;51.456;12.626;2022-11-20T05:38:13;-5.00;84.90
13332;DHT22;6735;51.456;12.626;2022-11-20T05:40:38;-5.00;84.80
13332;DHT22;6735;51.456;12.626;2022-11-20T05:43:04;-4.90;84.90
13332;DHT22;6735;51.456;12.626;2022-11-20T05:45:30;-4.90;84.90
13332;DHT22;6735;51.456;12.626;2022-11-20T05:47:58;-5.00;84.90
13332;DHT22;6735;51.456;12.626;2022-11-20T05:50:26;-4.90;84.90
13332;DHT22;6735;51.456;12.626;2022-11-20T05:52:51;-4.90;84.90
13332;DHT22;6735;51.456;12.626;2022-11-20T05:55:17;-5.00;84.80
13332;DHT22;6735;51.456;12.626;2022-11-20T05:57:42;-5.00;84.70
13332;DHT22;6735;51.456;12.626;2022-11-20T06:00:08;-5.00;84.60
13332;DHT22;6735;51.456;12.626;2022-11-20T06:02:34;-5.10;84.60
13332;DHT22;6735;51.456;12.626;2022-11-20T06:05:01;-5.10;84.60
13332;DHT22;6735;51.456;12.626;2022-11-20T06:07:26;-5.10;84.50
13332;DHT22;6735;51.456;12.626;2022-11-20T06:09:52;-5.10;84.60
13332;DHT22;6735;51.456;12.626;2022-11-20T06:12:17;-5.10;84.60
13332;DHT22;6735;51.456;12.626;2022-11-20T06:14:43;-5.10;84.60
13332;DHT22;6735;51.456;12.626;2022-11-20T06:17:08;-5.10;84.50
13332;DHT22;6735;51.456;12.626;2022-11-20T06:19:34;-5.10;84.50
13332;DHT22;6735;51.456;12.626;2022-11-20T06:21:59;-5.10;84.50
13332;DHT22;6735;51.456;12.626;2022-11-20T06:24:25;-5.10;84.50
13332;DHT22;6735;51.456;12.626;2022-11-20T06:26:50;-5.10;84.50
13332;DHT22;6735;51.456;12.626;2022-11-20T06:29:16;-5.10;84.40
13332;DHT22;6735;51.456;12.626;2022-11-20T06:31:41;-5.20;84.30
13332;DHT22;6735;51.456;12.626;2022-11-20T06:34:08;-5.20;84.40
13332;DHT22;6735;51.456;12.626;2022-11-20T06:36:33;-5.20;84.30
13332;DHT22;6735;51.456;12.626;2022-11-20T06:39:00;-5.10;84.30
13332;DHT22;6735;51.456;12.626;2022-11-20T06:41:25;-5.10;84.20
13332;DHT22;6735;51.456;12.626;2022-11-20T06:43:51;-5.20;84.20
13332;DHT22;6735;51.456;12.626;2022-11-20T06:46:19;-5.10;84.30
13332;DHT22;6735;51.456;12.626;2022-11-20T06:48:45;-5.10;84.40
13332;DHT22;6735;51.456;12.626;2022-11-20T06:51:12;-5.10;84.40
13332;DHT22;6735;51.456;12.626;2022-11-20T06:53:38;-5.10;84.70
13332;DHT22;6735;51.456;12.626;2022-11-20T06:56:04;-5.00;84.90
13332;DHT22;6735;51.456;12.626;2022-11-20T06:58:32;-4.90;84.90
13332;DHT22;6735;51.456;12.626;2022-11-20T07:01:09;-4.90;85.00
13332;DHT22;6735;51.456;12.626;2022-11-20T07:03:35;-4.90;85.20
13332;DHT22;6735;51.456;12.626;2022-11-20T07:06:02;-4.80;85.50
13332;DHT22;6735;51.456;12.626;2022-11-20T07:08:28;-4.80;85.60
13332;DHT22;6735;51.456;12.626;2022-11-20T07:10:57;-4.80;85.70
13332;DHT22;6735;51.456;12.626;2022-11-20T07:13:23;-4.70;86.00
13332;DHT22;6735;51.456;12.626;2022-11-20T07:15:49;-4.60;86.00
13332;DHT22;6735;51.456;12.626;2022-11-20T07:18:14;-4.60;85.90
13332;DHT22;6735;51.456;12.626;2022-11-20T07:20:40;-4.50;85.70
13332;DHT22;6735;51.456;12.626;2022-11-20T07:23:05;-4.50;85.50
13332;DHT22;6735;51.456;12.626;2022-11-20T07:25:31;-4.50;85.70
13332;DHT22;6735;51.456;12.626;2022-11-20T07:27:58;-4.40;85.80
13332;DHT22;6735;51.456;12.626;2022-11-20T07:30:23;-4.30;85.90
13332;DHT22;6735;51.456;12.626;2022-11-20T07:32:53;-4.20;86.20
13332;DHT22;6735;51.456;12.626;2022-11-20T07:35:19;-4.10;85.90
13332;DHT22;6735;51.456;12.626;2022-11-20T07:37:45;-4.10;85.90
13332;DHT22;6735;51.456;12.626;2022-11-20T07:40:12;-4.10;86.00
13332;DHT22;6735;51.456;12.626;2022-11-20T07:42:37;-4.00;85.90
13332;DHT22;6735;51.456;12.626;2022-11-20T07:45:03;-4.00;85.90
13332;DHT22;6735;51.456;12.626;2022-11-20T07:47:35;-4.00;86.10
13332;DHT22;6735;51.456;12.626;2022-11-20T07:50:00;-4.00;86.10
13332;DHT22;6735;51.456;12.626;2022-11-20T07:52:26;-3.90;86.20
13332;DHT22;6735;51.456;12.626;2022-11-20T07:54:51;-3.90;86.30
13332;DHT22;6735;51.456;12.626;2022-11-20T07:57:17;-3.80;86.70
13332;DHT22;6735;51.456;12.626;2022-11-20T07:59:42;-3.80;86.50
13332;DHT22;6735;51.456;12.626;2022-11-20T08:02:10;-3.50;87.80
13332;DHT22;6735;51.456;12.626;2022-11-20T08:04:35;-3.40;87.50
13332;DHT22;6735;51.456;12.626;2022-11-20T08:07:01;-3.20;87.70
13332;DHT22;6735;51.456;12.626;2022-11-20T08:09:26;-3.10;87.10
13332;DHT22;6735;51.456;12.626;2022-11-20T08:11:52;-3.10;86.10
13332;DHT22;6735;51.456;12.626;2022-11-20T08:14:36;-3.20;85.50
13332;DHT22;6735;51.456;12.626;2022-11-20T08:17:02;-3.20;85.40
13332;DHT22;6735;51.456;12.626;2022-11-20T08:19:27;-3.30;85.30
13332;DHT22;6735;51.456;12.626;2022-11-20T08:21:53;-3.30;85.50
13332;DHT22;6735;51.456;12.626;2022-11-20T08:24:20;-3.30;85.60
13332;DHT22;6735;51.456;12.626;2022-11-20T08:26:45;-3.30;85.60
13332;DHT22;6735;51.456;12.626;2022-11-20T08:29:11;-3.20;85.50
13332;DHT22;6735;51.456;12.626;2022-11-20T08:31:36;-3.20;85.50
13332;DHT22;6735;51.456;12.626;2022-11-20T08:34:02;-3.10;85.60
13332;DHT22;6735;51.456;12.626;2022-11-20T08:36:27;-3.10;85.50
13332;DHT22;6735;51.456;12.626;2022-11-20T08:38:54;-3.10;85.70
13332;DHT22;6735;51.456;12.626;2022-11-20T08:41:20;-3.00;85.60
13332;DHT22;6735;51.456;12.626;2022-11-20T08:43:50;-3.00;85.60
13332;DHT22;6735;51.456;12.626;2022-11-20T08:46:16;-2.90;85.70
13332;DHT22;6735;51.456;12.626;2022-11-20T08:48:42;-2.90;85.50
13332;DHT22;6735;51.456;12.626;2022-11-20T08:51:10;-2.80;85.30
13332;DHT22;6735;51.456;12.626;2022-11-20T08:53:36;-2.70;85.20
13332;DHT22;6735;51.456;12.626;2022-11-20T08:56:01;-2.70;85.30
13332;DHT22;6735;51.456;12.626;2022-11-20T08:58:27;-2.60;85.20
13332;DHT22;6735;51.456;12.626;2022-11-20T09:00:52;-2.60;84.90
13332;DHT22;6735;51.456;12.626;2022-11-20T09:03:18;-2.50;84.90
13332;DHT22;6735;51.456;12.626;2022-11-20T09:05:44;-2.40;84.70
13332;DHT22;6735;51.456;12.626;2022-11-20T09:08:09;-2.40;84.70
13332;DHT22;6735;51.456;12.626;2022-11-20T09:10:35;-2.30;84.70
13332;DHT22;6735;51.456;12.626;2022-11-20T09:13:01;-2.20;84.50
13332;DHT22;6735;51.456;12.626;2022-11-20T09:15:27;-2.20;84.40
13332;DHT22;6735;51.456;12.626;2022-11-20T09:17:54;-2.10;84.30
13332;DHT22;6735;51.456;12.626;2022-11-20T09:20:20;-2.00;84.10
13332;DHT22;6735;51.456;12.626;2022-11-20T09:22:46;-1.90;83.90
13332;DHT22;6735;51.456;12.626;2022-11-20T09:25:11;-1.80;83.70
13332;DHT22;6735;51.456;12.626;2022-11-20T09:27:37;-1.70;83.50
13332;DHT22;6735;51.456;12.626;2022-11-20T09:30:03;-1.60;83.40
13332;DHT22;6735;51.456;12.626;2022-11-20T09:32:29;-1.60;82.90
13332;DHT22;6735;51.456;12.626;2022-11-20T09:34:54;-1.50;82.90
13332;DHT22;6735;51.456;12.626;2022-11-20T09:37:20;-1.40;82.50
13332;DHT22;6735;51.456;12.626;2022-11-20T09:39:46;-1.30;82.40
13332;DHT22;6735;51.456;12.626;2022-11-20T09:42:37;-1.20;82.10
13332;DHT22;6735;51.456;12.626;2022-11-20T09:45:30;-1.10;82.00
13332;DHT22;6735;51.456;12.626;2022-11-20T09:48:14;-1.00;81.90
13332;DHT22;6735;51.456;12.626;2022-11-20T09:50:43;-0.90;81.90
13332;DHT22;6735;51.456;12.626;2022-11-20T09:55:54;-0.80;81.10
13332;DHT22;6735;51.456;12.626;2022-11-20T09:58:42;-0.80;81.10
13332;DHT22;6735;51.456;12.626;2022-11-20T10:01:14;-0.70;81.20
13332;DHT22;6735;51.456;12.626;2022-11-20T10:04:00;-0.70;80.80
13332;DHT22;6735;51.456;12.626;2022-11-20T10:06:34;-0.70;81.10
13332;DHT22;6735;51.456;12.626;2022-11-20T10:12:03;-0.60;80.50
13332;DHT22;6735;51.456;12.626;2022-11-20T10:17:46;-0.60;81.20
13332;DHT22;6735;51.456;12.626;2022-11-20T10:20:43;-0.50;80.90
13332;DHT22;6735;51.456;12.626;2022-11-20T10:23:20;-0.60;80.40
13332;DHT22;6735;51.456;12.626;2022-11-20T10:26:06;-0.50;80.60
13332;DHT22;6735;51.456;12.626;2022-11-20T10:29:14;-0.50;80.70
13332;DHT22;6735;51.456;12.626;2022-11-20T10:31:46;-0.60;80.70
13332;DHT22;6735;51.456;12.626;2022-11-20T10:34:28;-0.60;80.30
13332;DHT22;6735;51.456;12.626;2022-11-20T10:36:59;-0.60;80.60
13332;DHT22;6735;51.456;12.626;2022-11-20T10:39:42;-0.60;80.60
13332;DHT22;6735;51.456;12.626;2022-11-20T10:42:14;-0.60;80.90
13332;DHT22;6735;51.456;12.626;2022-11-20T10:44:48;-0.50;80.70
13332;DHT22;6735;51.456;12.626;2022-11-20T10:47:30;-0.50;80.60
13332;DHT22;6735;51.456;12.626;2022-11-20T10:50:01;-0.40;81.00
13332;DHT22;6735;51.456;12.626;2022-11-20T10:55:57;-0.40;80.70
13332;DHT22;6735;51.456;12.626;2022-11-20T10:58:47;-0.50;80.60
13332;DHT22;6735;51.456;12.626;2022-11-20T11:03:42;-0.40;80.80
13332;DHT22;6735;51.456;12.626;2022-11-20T11:06:17;-0.40;81.00
13332;DHT22;6735;51.456;12.626;2022-11-20T11:08:47;-0.40;81.10
13332;DHT22;6735;51.456;12.626;2022-11-20T11:11:27;-0.40;80.80
13332;DHT22;6735;51.456;12.626;2022-11-20T11:14:07;-0.50;80.80
13332;DHT22;6735;51.456;12.626;2022-11-20T11:16:33;-0.40;80.70
13332;DHT22;6735;51.456;12.626;2022-11-20T11:19:14;-0.40;80.90
13332;DHT22;6735;51.456;12.626;2022-11-20T11:21:53;-0.30;81.00
13332;DHT22;6735;51.456;12.626;2022-11-20T11:24:29;-0.30;80.60
13332;DHT22;6735;51.456;12.626;2022-11-20T11:27:03;-0.20;80.80
13332;DHT22;6735;51.456;12.626;2022-11-20T11:29:32;-0.20;80.40
13332;DHT22;6735;51.456;12.626;2022-11-20T11:32:06;-0.10;80.50
13332;DHT22;6735;51.456;12.626;2022-11-20T11:34:31;-0.10;80.40
13332;DHT22;6735;51.456;12.626;2022-11-20T11:36:58;0.00;80.10
13332;DHT22;6735;51.456;12.626;2022-11-20T11:39:26;0.00;79.50
13332;DHT22;6735;51.456;12.626;2022-11-20T11:41:52;0.00;79.80
13332;DHT22;6735;51.456;12.626;2022-11-20T11:44:22;0.00;79.50
13332;DHT22;6735;51.456;12.626;2022-11-20T11:49:48;0.00;79.70
13332;DHT22;6735;51.456;12.626;2022-11-20T11:52:17;0.00;79.40
13332;DHT22;6735;51.456;12.626;2022-11-20T11:54:53;0.00;79.40
13332;DHT22;6735;51.456;12.626;2022-11-20T11:59:57;0.10;79.50
13332;DHT22;6735;51.456;12.626;2022-11-20T12:02:39;0.10;79.60
13332;DHT22;6735;51.456;12.626;2022-11-20T12:05:45;0.10;80.10
13332;DHT22;6735;51.456;12.626;2022-11-20T12:08:23;0.20;80.10
13332;DHT22;6735;51.456;12.626;2022-11-20T12:14:16;0.20;80.30
13332;DHT22;6735;51.456;12.626;2022-11-20T12:16:45;0.20;80.20
13332;DHT22;6735;51.456;12.626;2022-11-20T12:19:12;0.20;79.80
13332;DHT22;6735;51.456;12.626;2022-11-20T12:27:32;0.30;80.00
13332;DHT22;6735;51.456;12.626;2022-11-20T12:30:08;0.20;80.20
13332;DHT22;6735;51.456;12.626;2022-11-20T12:43:24;0.30;79.90
13332;DHT22;6735;51.456;12.626;2022-11-20T12:46:18;0.40;79.70
13332;DHT22;6735;51.456;12.626;2022-11-20T12:49:11;0.30;79.60
13332;DHT22;6735;51.456;12.626;2022-11-20T12:56:46;0.40;79.40
13332;DHT22;6735;51.456;12.626;2022-11-20T13:02:26;0.40;79.60
13332;DHT22;6735;51.456;12.626;2022-11-20T13:07:24;0.50;78.80
13332;DHT22;6735;51.456;12.626;2022-11-20T13:09:51;0.50;78.90
13332;DHT22;6735;51.456;12.626;2022-11-20T13:12:29;0.50;79.10
13332;DHT22;6735;51.456;12.626;2022-11-20T13:15:06;0.50;79.00
13332;DHT22;6735;51.456;12.626;2022-11-20T13:17:41;0.40;79.20
13332;DHT22;6735;51.456;12.626;2022-11-20T13:20:16;0.40;79.40
13332;DHT22;6735;51.456;12.626;2022-11-20T13:22:47;0.40;79.70
13332;DHT22;6735;51.456;12.626;2022-11-20T13:25:36;0.30;79.00
13332;DHT22;6735;51.456;12.626;2022-11-20T13:30:34;0.30;78.80
13332;DHT22;6735;51.456;12.626;2022-11-20T13:33:21;0.30;79.00
13332;DHT22;6735;51.456;12.626;2022-11-20T13:35:59;0.30;79.40
13332;DHT22;6735;51.456;12.626;2022-11-20T13:38:25;0.30;79.10
13332;DHT22;6735;51.456;12.626;2022-11-20T13:40:57;0.20;78.90
13332;DHT22;6735;51.456;12.626;2022-11-20T13:43:27;0.30;79.20
13332;DHT22;6735;51.456;12.626;2022-11-20T13:46:02;0.20;78.90
13332;DHT22;6735;51.456;12.626;2022-11-20T13:48:42;0.20;79.00
13332;DHT22;6735;51.456;12.626;2022-11-20T13:51:40;0.20;79.40
13332;DHT22;6735;51.456;12.626;2022-11-20T13:59:53;0.10;80.50
13332;DHT22;6735;51.456;12.626;2022-11-20T14:02:23;0.10;80.40
13332;DHT22;6735;51.456;12.626;2022-11-20T14:04:54;0.00;80.80
13332;DHT22;6735;51.456;12.626;2022-11-20T14:07:22;0.00;80.80
13332;DHT22;6735;51.456;12.626;2022-11-20T14:09:56;0.00;80.90
13332;DHT22;6735;51.456;12.626;2022-11-20T14:12:27;0.00;80.90
13332;DHT22;6735;51.456;12.626;2022-11-20T14:14:54;0.00;81.30
13332;DHT22;6735;51.456;12.626;2022-11-20T14:17:29;-0.10;81.20
13332;DHT22;6735;51.456;12.626;2022-11-20T14:20:02;-0.10;81.40
13332;DHT22;6735;51.456;12.626;2022-11-20T14:22:29;-0.10;81.50
13332;DHT22;6735;51.456;12.626;2022-11-20T14:25:24;-0.20;81.40
13332;DHT22;6735;51.456;12.626;2022-11-20T14:27:57;-0.30;81.60
13332;DHT22;6735;51.456;12.626;2022-11-20T14:30:26;-0.30;81.60
13332;DHT22;6735;51.456;12.626;2022-11-20T14:32:55;-0.40;81.80
13332;DHT22;6735;51.456;12.626;2022-11-20T14:35:35;-0.40;81.90
13332;DHT22;6735;51.456;12.626;2022-11-20T14:38:02;-0.40;81.90
13332;DHT22;6735;51.456;12.626;2022-11-20T14:40:33;-0.50;81.90
13332;DHT22;6735;51.456;12.626;2022-11-20T14:45:59;-0.60;82.60
13332;DHT22;6735;51.456;12.626;2022-11-20T14:48:46;-0.60;82.50
13332;DHT22;6735;51.456;12.626;2022-11-20T14:51:34;-0.70;82.30
13332;DHT22;6735;51.456;12.626;2022-11-20T14:54:18;-0.80;82.40
13332;DHT22;6735;51.456;12.626;2022-11-20T14:57:01;-0.80;82.40
13332;DHT22;6735;51.456;12.626;2022-11-20T14:59:32;-0.90;82.50
13332;DHT22;6735;51.456;12.626;2022-11-20T15:02:03;-0.90;82.70
13332;DHT22;6735;51.456;12.626;2022-11-20T15:04:30;-1.00;82.60
13332;DHT22;6735;51.456;12.626;2022-11-20T15:06:58;-1.00;82.80
13332;DHT22;6735;51.456;12.626;2022-11-20T15:09:24;-1.10;82.60
13332;DHT22;6735;51.456;12.626;2022-11-20T15:12:01;-1.10;82.70
13332;DHT22;6735;51.456;12.626;2022-11-20T15:14:28;-1.10;82.70
13332;DHT22;6735;51.456;12.626;2022-11-20T15:16:54;-1.20;82.60
13332;DHT22;6735;51.456;12.626;2022-11-20T15:19:22;-1.30;82.80
13332;DHT22;6735;51.456;12.626;2022-11-20T15:21:48;-1.30;83.00
13332;DHT22;6735;51.456;12.626;2022-11-20T15:24:14;-1.40;82.90
13332;DHT22;6735;51.456;12.626;2022-11-20T15:26:40;-1.40;83.10
13332;DHT22;6735;51.456;12.626;2022-11-20T15:29:14;-1.50;83.10
13332;DHT22;6735;51.456;12.626;2022-11-20T15:31:44;-1.50;83.20
13332;DHT22;6735;51.456;12.626;2022-11-20T15:34:15;-1.50;83.20
13332;DHT22;6735;51.456;12.626;2022-11-20T15:36:41;-1.60;83.30
13332;DHT22;6735;51.456;12.626;2022-11-20T15:39:08;-1.60;83.10
13332;DHT22;6735;51.456;12.626;2022-11-20T15:41:35;-1.70;83.20
13332;DHT22;6735;51.456;12.626;2022-11-20T15:44:01;-1.70;83.30
13332;DHT22;6735;51.456;12.626;2022-11-20T15:46:29;-1.80;83.40
13332;DHT22;6735;51.456;12.626;2022-11-20T15:48:56;-1.80;83.40
13332;DHT22;6735;51.456;12.626;2022-11-20T15:51:37;-1.80;83.60
13332;DHT22;6735;51.456;12.626;2022-11-20T15:54:14;-1.80;83.40
13332;DHT22;6735;51.456;12.626;2022-11-20T15:56:40;-1.90;83.60
13332;DHT22;6735;51.456;12.626;2022-11-20T15:59:05;-1.90;83.70
13332;DHT22;6735;51.456;12.626;2022-11-20T16:01:31;-1.90;83.60
13332;DHT22;6735;51.456;12.626;2022-11-20T16:03:56;-2.00;83.70
13332;DHT22;6735;51.456;12.626;2022-11-20T16:06:22;-2.00;83.90
13332;DHT22;6735;51.456;12.626;2022-11-20T16:08:47;-2.00;83.70
13332;DHT22;6735;51.456;12.626;2022-11-20T16:11:15;-2.00;83.80
13332;DHT22;6735;51.456;12.626;2022-11-20T16:13:41;-2.10;84.00
13332;DHT22;6735;51.456;12.626;2022-11-20T16:16:30;-2.10;84.20
13332;DHT22;6735;51.456;12.626;2022-11-20T16:18:56;-2.10;84.30
13332;DHT22;6735;51.456;12.626;2022-11-20T16:21:22;-2.10;84.30
13332;DHT22;6735;51.456;12.626;2022-11-20T16:23:57;-2.20;84.30
13332;DHT22;6735;51.456;12.626;2022-11-20T16:26:23;-2.20;84.40
13332;DHT22;6735;51.456;12.626;2022-11-20T16:28:48;-2.20;84.40
13332;DHT22;6735;51.456;12.626;2022-11-20T16:31:16;-2.30;84.30
13332;DHT22;6735;51.456;12.626;2022-11-20T16:33:43;-2.30;84.50
13332;DHT22;6735;51.456;12.626;2022-11-20T16:36:12;-2.30;84.50
13332;DHT22;6735;51.456;12.626;2022-11-20T16:38:39;-2.30;84.60
13332;DHT22;6735;51.456;12.626;2022-11-20T16:41:05;-2.40;84.50
13332;DHT22;6735;51.456;12.626;2022-11-20T16:43:31;-2.40;84.50
13332;DHT22;6735;51.456;12.626;2022-11-20T16:45:56;-2.40;84.60
13332;DHT22;6735;51.456;12.626;2022-11-20T16:48:22;-2.50;84.60
13332;DHT22;6735;51.456;12.626;2022-11-20T16:50:50;-2.50;84.60
13332;DHT22;6735;51.456;12.626;2022-11-20T16:53:20;-2.50;84.70
13332;DHT22;6735;51.456;12.626;2022-11-20T16:55:46;-2.50;84.70
13332;DHT22;6735;51.456;12.626;2022-11-20T16:58:12;-2.50;84.70